createdAt,value
2023-04-17T00:00:17.362Z,0.10
2023-04-17T00:02:46.700Z,0.20
2023-04-17T00:05:17.041Z,0.10
2023-04-17T00:07:46.741Z,0.40
2023-04-17T00:10:14.942Z,0.40
2023-04-17T00:12:43.284Z,0.30
2023-04-17T00:15:11.929Z,0.20
2023-04-17T00:17:40.157Z,0.30
2023-04-17T00:20:10.235Z,0.30
2023-04-17T00:22:43.134Z,0.30
2023-04-17T00:25:13.116Z,0.10
2023-04-17T00:27:41.549Z,0.20
2023-04-17T00:30:10.304Z,0.20
2023-04-17T00:32:38.467Z,0.20
2023-04-17T00:35:07.324Z,0.10
2023-04-17T00:37:36.091Z,0.00
2023-04-17T00:40:06.092Z,0.10
2023-04-17T00:42:34.385Z,-0.20
2023-04-17T00:45:02.626Z,-0.10
2023-04-17T00:47:30.974Z,-0.10
2023-04-17T00:49:59.770Z,0.00
2023-04-17T00:52:30.914Z,0.20
2023-04-17T00:54:59.748Z,0.10
2023-04-17T00:57:29.375Z,0.10
2023-04-17T00:59:58.258Z,-0.10
2023-04-17T01:02:26.980Z,0.00
2023-04-17T01:04:55.389Z,-0.10
2023-04-17T01:07:23.642Z,-0.10
2023-04-17T01:09:51.733Z,-0.10
2023-04-17T01:12:20.791Z,-0.10
2023-04-17T01:14:50.800Z,-0.10
2023-04-17T01:17:20.629Z,-0.10
2023-04-17T01:19:48.861Z,-0.20
2023-04-17T01:22:17.626Z,-0.20
2023-04-17T01:24:47.527Z,-0.10
2023-04-17T01:27:15.766Z,-0.10
2023-04-17T01:29:44.425Z,-0.20
2023-04-17T01:32:12.811Z,-0.20
2023-04-17T01:34:40.931Z,0.00
2023-04-17T01:37:09.084Z,-0.10
2023-04-17T01:39:37.659Z,-0.10
2023-04-17T01:42:07.524Z,-0.20
2023-04-17T01:44:37.604Z,-0.20
2023-04-17T01:47:05.996Z,-0.10
2023-04-17T01:49:34.211Z,0.00
2023-04-17T01:52:02.612Z,-0.10
2023-04-17T01:54:30.810Z,-0.10
2023-04-17T01:56:59.007Z,-0.20
2023-04-17T01:59:28.576Z,-0.30
2023-04-17T02:01:57.203Z,-0.40
2023-04-17T02:04:25.645Z,-0.40
2023-04-17T02:06:53.979Z,-0.40
2023-04-17T02:09:22.088Z,-0.40
2023-04-17T02:11:52.803Z,-0.40
2023-04-17T02:14:21.118Z,-0.40
2023-04-17T02:16:50.830Z,-0.30
2023-04-17T02:19:18.992Z,-0.40
2023-04-17T02:21:47.201Z,-0.50
2023-04-17T02:24:15.514Z,-0.20
2023-04-17T02:26:43.648Z,-0.10
2023-04-17T02:29:12.137Z,0.00
2023-04-17T02:31:41.020Z,0.00
2023-04-17T02:34:10.769Z,-0.10
2023-04-17T02:36:39.094Z,-0.10
2023-04-17T02:39:07.592Z,0.00
2023-04-17T02:41:35.724Z,0.00
2023-04-17T02:44:03.994Z,-0.10
2023-04-17T02:46:35.265Z,-0.10
2023-04-17T02:49:03.656Z,-0.20
2023-04-17T02:51:33.369Z,-0.20
2023-04-17T02:54:01.612Z,-0.30
2023-04-17T02:56:29.822Z,-0.30
2023-04-17T02:59:00.710Z,-0.30
2023-04-17T03:01:30.009Z,-0.30
2023-04-17T03:04:01.729Z,-0.30
2023-04-17T03:06:30.383Z,-0.40
2023-04-17T03:09:00.111Z,-0.40
2023-04-17T03:11:28.264Z,-0.30
2023-04-17T03:13:56.516Z,-0.40
2023-04-17T03:16:24.735Z,-0.20
2023-04-17T03:18:54.906Z,-0.10
2023-04-17T03:21:23.062Z,-0.20
2023-04-17T03:23:51.254Z,-0.20
2023-04-17T03:26:21.731Z,-0.10
2023-04-17T03:28:49.842Z,-0.10
2023-04-17T03:31:18.273Z,0.10
2023-04-17T03:33:46.480Z,0.10
2023-04-17T03:36:14.662Z,0.10
2023-04-17T03:38:43.450Z,0.20
2023-04-17T03:41:11.848Z,0.30
2023-04-17T03:43:44.142Z,0.30
2023-04-17T03:46:12.337Z,0.30
2023-04-17T03:48:40.512Z,0.40
2023-04-17T03:51:10.876Z,0.30
2023-04-17T03:53:41.391Z,0.30
2023-04-17T03:56:09.771Z,0.40
2023-04-17T03:58:37.943Z,0.40
2023-04-17T04:01:11.033Z,0.50
2023-04-17T04:03:39.351Z,0.50
2023-04-17T04:06:10.657Z,0.70
2023-04-17T04:08:44.291Z,0.60
2023-04-17T04:11:12.416Z,0.70
2023-04-17T04:13:40.849Z,0.70
2023-04-17T04:16:10.729Z,0.70
2023-04-17T04:18:39.049Z,0.70
2023-04-17T04:21:07.214Z,0.80
2023-04-17T04:23:37.915Z,1.00
2023-04-17T04:26:06.172Z,1.10
2023-04-17T04:28:34.568Z,1.20
2023-04-17T04:31:02.961Z,1.20
2023-04-17T04:33:33.270Z,1.20
2023-04-17T04:36:02.241Z,1.40
2023-04-17T04:38:35.965Z,1.40
2023-04-17T04:41:06.403Z,1.50
2023-04-17T04:43:35.625Z,1.50
2023-04-17T04:46:03.786Z,1.70
2023-04-17T04:48:33.381Z,1.70
2023-04-17T04:51:01.624Z,1.80
2023-04-17T04:53:30.122Z,2.00
2023-04-17T04:55:58.329Z,2.20
2023-04-17T04:58:26.494Z,2.20
2023-04-17T05:00:54.714Z,2.20
2023-04-17T05:03:23.782Z,2.40
2023-04-17T05:05:54.881Z,2.50
2023-04-17T05:08:22.945Z,2.60
2023-04-17T05:10:51.262Z,2.60
2023-04-17T05:13:19.527Z,2.60
2023-04-17T05:15:47.688Z,2.80
2023-04-17T05:18:16.009Z,2.90
2023-04-17T05:20:44.155Z,3.00
2023-04-17T05:23:14.031Z,3.10
2023-04-17T05:25:44.767Z,3.10
2023-04-17T05:28:15.486Z,3.30
2023-04-17T05:30:45.843Z,3.30
2023-04-17T05:33:13.942Z,3.40
2023-04-17T05:35:42.192Z,3.40
2023-04-17T05:38:10.303Z,3.60
2023-04-17T05:40:39.875Z,3.70
2023-04-17T05:43:08.855Z,3.80
2023-04-17T05:45:37.138Z,4.00
2023-04-17T05:48:05.665Z,4.00
2023-04-17T05:50:33.828Z,4.10
2023-04-17T05:53:02.245Z,3.90
2023-04-17T05:55:30.405Z,3.90
2023-04-17T05:58:02.370Z,4.20
2023-04-17T06:00:34.028Z,4.20
2023-04-17T06:03:03.293Z,4.20
2023-04-17T06:05:31.792Z,4.40
2023-04-17T06:07:59.957Z,4.30
2023-04-17T06:10:28.283Z,4.50
2023-04-17T06:12:56.535Z,4.70
2023-04-17T06:15:26.832Z,4.60
2023-04-17T06:17:56.829Z,4.70
2023-04-17T06:20:24.967Z,4.80
2023-04-17T06:22:53.327Z,4.80
2023-04-17T06:25:21.462Z,5.00
2023-04-17T06:27:49.714Z,5.00
2023-04-17T06:30:17.903Z,5.10
2023-04-17T06:32:47.533Z,5.10
2023-04-17T06:35:15.824Z,5.30
2023-04-17T06:37:44.009Z,5.20
2023-04-17T06:40:13.618Z,5.30
2023-04-17T06:42:41.920Z,5.50
2023-04-17T06:45:10.587Z,5.50
2023-04-17T06:47:38.817Z,5.50
2023-04-17T06:50:09.551Z,5.40
2023-04-17T06:52:37.929Z,5.60
2023-04-17T06:55:09.389Z,5.40
2023-04-17T06:57:38.304Z,5.50
2023-04-17T07:00:06.989Z,5.50
2023-04-17T07:02:35.444Z,5.60
2023-04-17T07:05:06.667Z,5.60
2023-04-17T07:07:36.590Z,5.50
2023-04-17T07:10:04.931Z,5.60
2023-04-17T07:12:33.174Z,5.70
2023-04-17T07:15:01.441Z,5.70
2023-04-17T07:17:29.642Z,5.70
2023-04-17T07:19:57.870Z,5.70
2023-04-17T07:22:27.253Z,5.90
2023-04-17T07:24:57.046Z,5.70
2023-04-17T07:27:25.282Z,5.70
2023-04-17T07:29:54.873Z,5.60
2023-04-17T07:32:24.402Z,5.80
2023-04-17T07:34:53.028Z,5.90
2023-04-17T07:37:21.731Z,6.20
2023-04-17T07:39:50.619Z,6.20
2023-04-17T07:42:20.402Z,6.10
2023-04-17T07:44:49.450Z,6.20
2023-04-17T07:47:17.822Z,5.80
2023-04-17T07:49:49.235Z,6.10
2023-04-17T07:52:18.175Z,6.20
2023-04-17T07:54:46.663Z,6.40
2023-04-17T07:57:15.650Z,6.20
2023-04-17T07:59:45.760Z,5.90
2023-04-17T08:02:14.318Z,6.10
2023-04-17T08:04:44.971Z,6.20
2023-04-17T08:07:15.624Z,6.20
2023-04-17T08:09:44.362Z,6.30
2023-04-17T08:12:12.726Z,6.60
2023-04-17T08:14:40.922Z,6.30
2023-04-17T08:17:10.532Z,6.40
2023-04-17T08:19:38.901Z,6.30
2023-04-17T08:22:07.506Z,6.50
2023-04-17T08:24:35.594Z,6.30
2023-04-17T08:27:03.732Z,6.50
2023-04-17T08:29:31.783Z,6.60
2023-04-17T08:32:13.303Z,6.60
2023-04-17T08:34:44.105Z,6.60
2023-04-17T08:37:12.281Z,6.70
2023-04-17T08:39:40.524Z,6.90
2023-04-17T08:42:14.049Z,6.60
2023-04-17T08:44:44.922Z,6.70
2023-04-17T08:47:13.720Z,6.90
2023-04-17T08:49:44.196Z,6.90
2023-04-17T08:52:12.304Z,6.90
2023-04-17T08:54:40.550Z,6.90
2023-04-17T08:57:08.666Z,6.60
2023-04-17T08:59:36.693Z,6.90
2023-04-17T09:02:05.985Z,6.70
2023-04-17T09:04:38.376Z,7.30
2023-04-17T09:07:08.050Z,7.10
2023-04-17T09:09:49.251Z,6.70
2023-04-17T09:12:17.374Z,6.80
2023-04-17T09:14:45.870Z,6.90
2023-04-17T09:17:15.294Z,7.10
2023-04-17T09:20:02.148Z,7.00
2023-04-17T09:22:32.098Z,7.00
2023-04-17T09:25:02.095Z,6.40
2023-04-17T09:27:30.634Z,6.90
2023-04-17T09:29:59.483Z,6.70
2023-04-17T09:32:27.954Z,7.10
2023-04-17T09:34:57.107Z,7.10
2023-04-17T09:37:47.360Z,7.30
2023-04-17T09:40:17.106Z,7.50
2023-04-17T09:42:55.578Z,7.90
2023-04-17T09:45:24.444Z,7.40
2023-04-17T09:47:56.226Z,7.60
2023-04-17T09:50:25.645Z,7.30
2023-04-17T09:52:54.288Z,7.50
2023-04-17T09:55:24.253Z,7.40
2023-04-17T09:57:55.901Z,7.80
2023-04-17T10:00:28.972Z,7.70
2023-04-17T10:02:58.094Z,7.70
2023-04-17T10:05:27.294Z,7.90
2023-04-17T10:07:55.682Z,8.10
2023-04-17T10:10:26.504Z,8.30
2023-04-17T10:12:55.472Z,7.90
2023-04-17T10:15:24.156Z,7.60
2023-04-17T10:17:52.939Z,7.70
2023-04-17T10:20:35.483Z,7.70
2023-04-17T10:23:23.526Z,7.60
2023-04-17T10:26:14.553Z,7.40
2023-04-17T10:28:49.546Z,7.50
2023-04-17T10:31:18.181Z,7.60
2023-04-17T10:33:49.967Z,7.70
2023-04-17T10:36:32.919Z,7.60
2023-04-17T10:39:13.378Z,7.50
2023-04-17T10:41:56.742Z,7.70
2023-04-17T10:44:27.214Z,7.70
2023-04-17T10:46:55.396Z,8.10
2023-04-17T10:49:23.451Z,7.20
2023-04-17T10:51:53.879Z,6.90
2023-04-17T10:54:21.920Z,7.40
2023-04-17T10:56:55.945Z,7.60
2023-04-17T10:59:30.232Z,7.90
2023-04-17T11:02:05.013Z,7.80
2023-04-17T11:04:34.288Z,8.20
2023-04-17T11:07:02.799Z,7.60
2023-04-17T11:09:30.996Z,7.60
2023-04-17T11:12:02.897Z,7.40
2023-04-17T11:14:31.418Z,7.90
2023-04-17T11:17:02.364Z,8.10
2023-04-17T11:19:30.611Z,8.00
2023-04-17T11:22:01.422Z,8.30
2023-04-17T11:24:30.188Z,8.40
2023-04-17T11:27:01.298Z,7.80
2023-04-17T11:29:29.668Z,8.20
2023-04-17T11:31:58.901Z,8.10
2023-04-17T11:34:31.464Z,8.20
2023-04-17T11:37:00.180Z,8.00
2023-04-17T11:39:30.143Z,8.30
2023-04-17T11:41:58.645Z,7.80
2023-04-17T11:44:26.911Z,7.70
2023-04-17T11:46:55.633Z,7.80
2023-04-17T11:49:27.672Z,7.80
2023-04-17T11:52:00.389Z,7.50
2023-04-17T11:54:28.737Z,7.60
2023-04-17T11:57:01.396Z,7.90
2023-04-17T11:59:33.035Z,8.30
2023-04-17T12:02:02.031Z,8.00
2023-04-17T12:04:33.645Z,7.70
2023-04-17T12:07:04.158Z,7.60
2023-04-17T12:09:32.789Z,7.70
2023-04-17T12:12:01.489Z,8.40
2023-04-17T12:14:29.542Z,8.20
2023-04-17T12:16:57.601Z,8.20
2023-04-17T12:19:28.103Z,7.70
2023-04-17T12:21:56.729Z,7.60
2023-04-17T12:24:26.243Z,7.70
2023-04-17T12:26:54.826Z,7.40
2023-04-17T12:29:36.230Z,7.20
2023-04-17T12:32:11.589Z,6.80
2023-04-17T12:34:40.056Z,6.90
2023-04-17T12:37:11.029Z,6.90
2023-04-17T12:39:40.563Z,7.40
2023-04-17T12:42:08.818Z,7.30
2023-04-17T12:44:36.931Z,7.00
2023-04-17T12:47:05.168Z,7.10
2023-04-17T12:49:33.229Z,7.30
2023-04-17T12:52:03.700Z,7.10
2023-04-17T12:54:34.915Z,6.80
2023-04-17T12:57:04.787Z,7.20
2023-04-17T12:59:33.425Z,7.60
2023-04-17T13:02:02.326Z,7.40
2023-04-17T13:04:30.850Z,7.10
2023-04-17T13:06:59.128Z,7.20
2023-04-17T13:09:30.363Z,7.40
2023-04-17T13:11:59.003Z,7.50
2023-04-17T13:14:28.495Z,7.10
2023-04-17T13:16:56.820Z,7.60
2023-04-17T13:19:24.945Z,6.90
2023-04-17T13:21:56.033Z,6.60
2023-04-17T13:24:24.151Z,6.60
2023-04-17T13:26:52.286Z,6.60
2023-04-17T13:29:20.593Z,6.90
2023-04-17T13:31:50.309Z,6.90
2023-04-17T13:34:18.845Z,7.50
2023-04-17T13:36:46.968Z,7.20
2023-04-17T13:39:15.365Z,7.20
2023-04-17T13:41:43.681Z,7.20
2023-04-17T13:44:12.594Z,7.40
2023-04-17T13:46:41.102Z,7.70
2023-04-17T13:49:11.087Z,7.60
2023-04-17T13:51:39.531Z,7.20
2023-04-17T13:54:07.817Z,7.30
2023-04-17T13:56:35.983Z,7.80
2023-04-17T13:59:05.114Z,7.50
2023-04-17T14:01:33.201Z,8.20
2023-04-17T14:04:01.815Z,8.20
2023-04-17T14:06:32.539Z,8.20
2023-04-17T14:09:03.174Z,7.90
2023-04-17T14:11:31.350Z,8.30
2023-04-17T14:13:59.516Z,8.10
2023-04-17T14:16:31.102Z,7.90
2023-04-17T14:19:06.445Z,7.90
2023-04-17T14:21:41.942Z,8.00
2023-04-17T14:24:10.228Z,8.20
2023-04-17T14:26:39.087Z,8.30
2023-04-17T14:29:07.250Z,8.70
2023-04-17T14:31:35.340Z,8.40
2023-04-17T14:34:03.747Z,8.40
2023-04-17T14:36:31.802Z,7.90
2023-04-17T14:39:01.427Z,8.00
2023-04-17T14:41:33.988Z,8.20
2023-04-17T14:44:02.461Z,8.30
2023-04-17T14:46:31.009Z,8.10
2023-04-17T14:48:59.110Z,8.20
2023-04-17T14:51:27.415Z,8.50
2023-04-17T14:53:55.734Z,7.50
2023-04-17T14:56:25.454Z,7.30
2023-04-17T14:58:53.626Z,7.80
2023-04-17T15:01:21.696Z,8.00
2023-04-17T15:03:51.223Z,8.20
2023-04-17T15:06:21.581Z,7.50
2023-04-17T15:08:49.735Z,7.70
2023-04-17T15:11:17.779Z,7.10
2023-04-17T15:13:47.298Z,7.60
2023-04-17T15:16:15.797Z,7.70
2023-04-17T15:18:43.899Z,7.70
2023-04-17T15:21:12.592Z,7.00
2023-04-17T15:23:41.233Z,7.20
2023-04-17T15:26:09.551Z,7.70
2023-04-17T15:28:38.156Z,7.20
2023-04-17T15:31:08.096Z,7.90
2023-04-17T15:33:37.378Z,8.20
2023-04-17T15:36:05.775Z,7.70
2023-04-17T15:38:34.149Z,7.80
2023-04-17T15:41:03.754Z,8.20
2023-04-17T15:43:32.407Z,7.50
2023-04-17T15:46:02.384Z,7.00
2023-04-17T15:48:32.217Z,7.50
2023-04-17T15:51:00.642Z,7.80
2023-04-17T15:53:28.731Z,8.10
2023-04-17T15:55:56.995Z,8.10
2023-04-17T15:58:25.127Z,8.00
2023-04-17T16:00:53.351Z,8.00
2023-04-17T16:03:21.719Z,7.70
2023-04-17T16:05:53.904Z,8.30
2023-04-17T16:08:22.271Z,8.30
2023-04-17T16:10:50.460Z,8.60
2023-04-17T16:13:18.715Z,8.40
2023-04-17T16:15:46.843Z,8.30
2023-04-17T16:18:16.098Z,8.50
2023-04-17T16:20:44.442Z,8.90
2023-04-17T16:23:14.014Z,9.00
2023-04-17T16:25:42.484Z,8.70
2023-04-17T16:28:10.602Z,8.80
2023-04-17T16:30:38.902Z,9.20
2023-04-17T16:33:06.971Z,8.90
2023-04-17T16:35:36.545Z,9.00
2023-04-17T16:38:04.594Z,8.90
2023-04-17T16:40:34.648Z,8.20
2023-04-17T16:43:02.819Z,7.70
2023-04-17T16:45:31.063Z,8.40
2023-04-17T16:47:59.438Z,8.50
2023-04-17T16:50:30.431Z,8.40
2023-04-17T16:52:58.505Z,8.40
2023-04-17T16:55:26.753Z,8.10
2023-04-17T16:57:57.532Z,8.20
2023-04-17T17:00:25.800Z,7.80
2023-04-17T17:02:54.049Z,8.00
2023-04-17T17:05:22.593Z,7.50
2023-04-17T17:07:50.929Z,7.50
2023-04-17T17:10:19.057Z,7.80
2023-04-17T17:12:49.879Z,7.30
2023-04-17T17:15:21.213Z,7.50
2023-04-17T17:17:49.823Z,7.00
2023-04-17T17:20:17.949Z,7.30
2023-04-17T17:22:46.313Z,7.30
2023-04-17T17:25:14.480Z,7.40
2023-04-17T17:27:42.717Z,7.00
2023-04-17T17:30:11.380Z,6.90
2023-04-17T17:32:44.098Z,7.10
2023-04-17T17:35:12.282Z,6.50
2023-04-17T17:37:42.299Z,5.80
2023-04-17T17:40:10.928Z,6.30
2023-04-17T17:42:39.129Z,6.30
2023-04-17T17:45:07.814Z,6.40
2023-04-17T17:47:36.089Z,6.60
2023-04-17T17:50:06.609Z,6.40
2023-04-17T17:52:34.942Z,6.50
2023-04-17T17:55:03.343Z,6.40
2023-04-17T17:57:42.228Z,6.30
2023-04-17T18:00:17.582Z,6.10
2023-04-17T18:02:45.853Z,5.80
2023-04-17T18:05:15.642Z,6.20
2023-04-17T18:07:45.044Z,6.00
2023-04-17T18:10:13.410Z,5.70
2023-04-17T18:12:41.620Z,5.90
2023-04-17T18:15:10.742Z,5.90
2023-04-17T18:17:38.960Z,5.60
2023-04-17T18:20:07.541Z,5.60
2023-04-17T18:22:38.491Z,5.30
2023-04-17T18:25:07.194Z,5.20
2023-04-17T18:27:38.100Z,5.30
2023-04-17T18:30:06.859Z,5.20
2023-04-17T18:32:35.204Z,5.10
2023-04-17T18:35:06.151Z,5.20
2023-04-17T18:37:34.479Z,5.20
2023-04-17T18:40:05.863Z,5.20
2023-04-17T18:42:34.059Z,5.20
2023-04-17T18:45:02.176Z,5.00
2023-04-17T18:47:30.336Z,5.20
2023-04-17T18:49:58.521Z,5.10
2023-04-17T18:52:26.832Z,5.10
2023-04-17T18:54:54.942Z,4.90
2023-04-17T18:57:24.571Z,4.80
2023-04-17T18:59:52.726Z,4.70
2023-04-17T19:02:21.727Z,4.70
2023-04-17T19:04:49.922Z,4.70
2023-04-17T19:07:20.444Z,4.70
2023-04-17T19:09:48.697Z,4.50
2023-04-17T19:12:17.001Z,4.60
2023-04-17T19:14:46.642Z,4.60
2023-04-17T19:17:16.081Z,4.50
2023-04-17T19:19:45.977Z,4.30
2023-04-17T19:22:16.017Z,4.40
2023-04-17T19:24:45.587Z,4.50
2023-04-17T19:27:13.740Z,4.50
2023-04-17T19:29:42.921Z,4.40
2023-04-17T19:32:12.487Z,4.40
2023-04-17T19:34:40.865Z,4.40
2023-04-17T19:37:08.989Z,4.30
2023-04-17T19:39:37.401Z,4.40
2023-04-17T19:42:08.152Z,4.20
2023-04-17T19:44:36.289Z,4.20
2023-04-17T19:47:04.652Z,4.10
2023-04-17T19:49:36.523Z,4.30
2023-04-17T19:52:04.702Z,4.20
2023-04-17T19:54:32.844Z,4.20
2023-04-17T19:57:01.063Z,4.20
2023-04-17T19:59:29.299Z,4.30
2023-04-17T20:01:57.740Z,4.20
2023-04-17T20:04:26.016Z,4.20
2023-04-17T20:06:59.115Z,4.10
2023-04-17T20:09:31.549Z,4.10
2023-04-17T20:11:59.722Z,4.10
2023-04-17T20:14:27.872Z,4.10
2023-04-17T20:16:56.289Z,4.00
2023-04-17T20:19:24.939Z,4.00
2023-04-17T20:21:53.190Z,4.00
2023-04-17T20:24:25.417Z,3.80
2023-04-17T20:26:54.002Z,3.80
2023-04-17T20:29:22.756Z,3.70
2023-04-17T20:31:51.506Z,3.80
2023-04-17T20:34:19.791Z,3.80
2023-04-17T20:36:47.917Z,3.80
2023-04-17T20:39:16.276Z,3.60
2023-04-17T20:41:46.139Z,3.60
2023-04-17T20:44:16.744Z,3.60
2023-04-17T20:46:45.036Z,3.60
2023-04-17T20:49:13.436Z,3.60
2023-04-17T20:51:41.602Z,3.60
2023-04-17T20:54:09.966Z,3.60
2023-04-17T20:56:38.059Z,3.70
2023-04-17T20:59:07.651Z,3.60
2023-04-17T21:01:37.805Z,3.70
2023-04-17T21:04:06.087Z,3.60
2023-04-17T21:06:34.453Z,3.50
2023-04-17T21:09:02.619Z,3.60
2023-04-17T21:11:33.429Z,3.60
2023-04-17T21:14:03.693Z,3.60
2023-04-17T21:16:33.326Z,3.60
2023-04-17T21:19:01.487Z,3.60
2023-04-17T21:21:29.756Z,3.40
2023-04-17T21:23:57.951Z,3.30
2023-04-17T21:26:26.283Z,3.40
2023-04-17T21:28:54.847Z,3.40
2023-04-17T21:31:23.003Z,3.40
2023-04-17T21:33:52.662Z,3.50
2023-04-17T21:36:22.579Z,3.50
2023-04-17T21:38:50.904Z,3.50
2023-04-17T21:41:19.264Z,3.40
2023-04-17T21:43:47.337Z,3.30
2023-04-17T21:46:15.689Z,3.40
2023-04-17T21:48:44.079Z,3.50
2023-04-17T21:51:13.873Z,3.30
2023-04-17T21:53:43.979Z,3.30
2023-04-17T21:56:14.789Z,3.40
2023-04-17T21:58:42.878Z,3.40
2023-04-17T22:01:11.181Z,3.30
2023-04-17T22:03:39.431Z,3.40
2023-04-17T22:06:07.733Z,3.50
2023-04-17T22:08:40.512Z,3.40
2023-04-17T22:11:11.863Z,3.50
2023-04-17T22:13:40.204Z,3.50
2023-04-17T22:16:09.863Z,3.60
2023-04-17T22:18:38.028Z,3.60
2023-04-17T22:21:06.746Z,3.60
2023-04-17T22:23:53.318Z,3.70
2023-04-17T22:26:40.263Z,3.70
2023-04-17T22:29:08.519Z,3.60
2023-04-17T22:31:55.446Z,3.70
2023-04-17T22:34:23.696Z,3.70
2023-04-17T22:37:10.572Z,3.70
2023-04-17T22:40:14.804Z,3.70
2023-04-17T22:43:01.449Z,3.70
2023-04-17T22:45:31.016Z,3.60
2023-04-17T22:47:59.244Z,3.60
2023-04-17T22:50:29.638Z,3.70
2023-04-17T22:52:57.842Z,3.60
2023-04-17T22:55:26.176Z,3.60
2023-04-17T22:57:54.311Z,3.60
2023-04-17T23:00:22.475Z,3.60
2023-04-17T23:02:52.501Z,3.40
2023-04-17T23:05:21.009Z,3.50
2023-04-17T23:07:49.251Z,3.50
2023-04-17T23:10:17.706Z,3.50
2023-04-17T23:12:45.820Z,3.50
2023-04-17T23:15:16.419Z,3.50
2023-04-17T23:17:44.791Z,3.40
2023-04-17T23:20:17.212Z,3.40
2023-04-17T23:22:45.503Z,3.40
2023-04-17T23:25:13.828Z,3.40
2023-04-17T23:27:42.058Z,3.40
2023-04-17T23:30:10.553Z,3.40
2023-04-17T23:32:41.704Z,3.30
2023-04-17T23:35:10.482Z,3.40
2023-04-17T23:37:40.106Z,3.40
2023-04-17T23:40:09.215Z,3.30
2023-04-17T23:42:37.427Z,3.30
2023-04-17T23:45:06.259Z,3.40
2023-04-17T23:47:34.581Z,3.30
2023-04-17T23:50:02.776Z,3.30
2023-04-17T23:52:30.842Z,3.40
2023-04-17T23:55:00.561Z,3.40
2023-04-17T23:57:28.705Z,3.30
2023-04-17T23:59:56.984Z,3.20
